Friday, July 01, 2016
15:13 UTC
  |  Log In   |  Register Free
Airport Search:

Coffeyville Municipal Airport
(KCFV)

Coffeyville Municipal Airport Diagram
No Airport Diagram Available

FAA data valid effective May 26 2016 - Jul 21 2016 (unless otherwise noted).

 
 
 
 
 
 
 
 
 
 
 
 
 
 
Current Aviation Weather for KCFV

Weather Summary


The most recent METAR observation for CFV was updated at: 12:52 UTC
METAR for KCFV is not available. Closest METAR is for KIDP
KCFV  (most recent observation was updatred at 11:45 UTC)
011452Z AUTO 05004KT 10SM CLR 26/21 A3009 RMK AO2 SLP182 60000 T02560206 52015

KIDP  (10.6 nm SE)   (most recent observation was updated at 11:45 UTC)
011455Z AUTO 00000KT 10SM SCT018 25/19 A3010 RMK AO2

KPPF  (14.6 nm SW)   (most recent observation was updated at 11:45 UTC)
011452Z AUTO 05007KT 010V120 10SM SCT050 27/20 A3011 RMK AO2 SLP185 T02670200 52016

TAF for KCFV is not available.
KBVO  (28.9 nm NE)   (most recent observation was updatred at 11:12 UTC)
011123Z 0112/0212 21003KT P6SM SCT045 BKN060 FM011300 07006KT P6SM VCTS SCT050CB BKN250 FM020100 06003KT P6SM FEW050 BKN100


KCNU  (34.8 nm SW)   (most recent observation was updatred at 11:12 UTC)
011127Z 0112/0212 06007KT P6SM BKN200 FM011900 10010KT P6SM VCTS BKN050CB FM020000 10008KT P6SM VCSH SCT100 OVC200


GlobalAir.com is loading additional information.
 Current Weather at CFV
77.0 F° (25.0 C°)

Northeast winds at 5.8 mph
Pressure:
30.07 in
Humidity:
77%
Wind:
Northeast at 5.8 mph
Dew Point:
69.1 F° (20.6 C°)
Visibility:
10.00 mi
CFV NOAA Radar




Find All Airport Services Find A Hotel Find A Rental Car Find A Golf Course Find A Restaurant $100 Hamburger



Airport Weather Forecast for KCFV

Translated METAR for KCFV (1452 UTC)
METAR:
KCFV 011452Z AUTO 05004KT 10SM CLR 26/21 A3009 RMK AO2 SLP182 60000 T02560206 52015
Conditions at:
KCFV (Coffeyville Muni, KS) observed 1452 UTC 01 July 2016
Temperature:
26°C (78.8°F)
Dewpoint:
21°C (69.8°F) [RH = 74]
Pressure:
30.09 inches Hg (1019 mb)
pressure at sea level is 182 in Hg
Winds:
from the NE (050 degrees) at 4.6 mph (4 knots: 2.1 m/s)
Visibility:
10 mile(s)
Ceiling:
at least 12,000 feet AGL
Clouds:
Clear below 12,000 feet AGL
Remarks:
site is un-manned
site is automated and HAS a precipitation sensor

Translated TAF for KBVO (Bartlesville Muni, OK) (1123 UTC)
TAF text:
KBVO 011123Z 0112/0212 21003KT P6SM SCT045 BKN060
Forecast period:
Friday Jul 01 2016 12:00 UTC - Saturday Jul 02 2016 12:00 UTC
Forecast type:
FROM: standard forecast or significant change
Winds:
from the SSW (210 degrees) at 3.5 mph (3 knots: 1.5 m/s)
Visibility:
6 or more mile(s) (9.7+ km)
Ceiling:
6,000 feet AGL
Clouds:
Scattered Clouds at 4,500 feet AGL
Broken Cloud Cover at 6,000 feet AGL
Weather:
no significant weather observed at this time
TAF text:
FM011300 07006KT P6SM VCTS SCT050CB BKN250
Forecast period:
Friday Jul 01 2016 13:00 UTC - Saturday Jul 02 2016 01:00 UTC
Forecast type:
FROM: standard forecast or significant change
Winds:
from the ENE (070 degrees) at 6.9 mph (6 knots: 3.1 m/s)
Visibility:
6 or more mile(s) (9.7+ km)
Ceiling:
25,000 feet AGL
Clouds:
Broken Cloud Cover at 25,000 feet AGL
Weather:
Moderate In Vicinity Thunderstorm
TAF text:
FM020100 06003KT P6SM FEW050 BKN100
Forecast period:
Saturday Jul 02 2016 01:00 UTC - Saturday Jul 02 2016 12:00 UTC
Forecast type:
FROM: standard forecast or significant change
Winds:
from the ENE (060 degrees) at 3.5 mph (3 knots: 1.5 m/s)
Visibility:
6 or more mile(s) (9.7+ km)
Ceiling:
10,000 feet AGL
Clouds:
Few Clouds at 5,000 feet AGL
Broken Cloud Cover at 10,000 feet AGL
Weather:
no significant weather observed at this time
FBO's on the Field
FBO Company Facility Photos Services Transportation Aviation Fuel Prices: Prices include tax
Catering Weather Repair Courtesy Rental Type 100LL JetA JetA+ MOGAS 8087
 
Coffeyville Aircraft, Inc

This FBO has not yet been rated
FS:Phillips 66
Last Updated: May-31
Login to update fuel prices
SS:
Contact Coffeyville Aircraft, IncMore FBO Information
 
Add another FBO Facility Photos Catering Weather Repair Courtesy Rental Type 100LL JetA JetA+ MOGAS 8087
Services Transportation Aviation Fuel Prices: Prices include tax


model-print
model-print
model-print
model-print